Time;durP1;ratioP1;P1;durP2;ratioP2;P2;SDS_P1;SDS_P2;PMS_P1;PMS_P2;Temp;Humidity;BMP_temperature;BMP_pressure;BME280_temperature;BME280_humidity;BME280_pressure;Samples;Min_cycle;Max_cycle;Signal;HPM_P1;HPM_P2
2023/10/12 00:02:21;;;;;;;1.73;1.20;;;13.20;99.90;;;;;;5091956;28;20398;-60
2023/10/12 00:04:53;;;;;;;1.70;1.57;;;13.30;99.90;;;;;;5091710;28;20407;-60
2023/10/12 00:07:25;;;;;;;1.67;1.00;;;13.30;99.90;;;;;;5091722;28;20467;-59
2023/10/12 00:10:12;;;;;;;1.70;1.60;;;13.30;99.90;;;;;;5091543;28;20822;-59
2023/10/12 00:12:41;;;;;;;1.50;1.40;;;13.30;99.90;;;;;;5091587;28;20421;-60
2023/10/12 00:15:22;;;;;;;1.47;1.10;;;13.40;99.90;;;;;;5091522;28;20533;-60
2023/10/12 00:17:53;;;;;;;1.70;1.30;;;13.50;99.90;;;;;;5091420;28;20407;-60
2023/10/12 00:23:09;;;;;;;3.90;2.70;;;13.50;99.90;;;;;;5091709;28;20459;-60
2023/10/12 00:25:54;;;;;;;2.77;2.50;;;13.50;99.90;;;;;;5091435;28;20923;-60
2023/10/12 00:28:21;;;;;;;1.40;1.30;;;13.50;99.90;;;;;;5091479;28;20433;-60
2023/10/12 00:30:54;;;;;;;2.20;1.90;;;13.60;99.90;;;;;;5091423;28;20456;-60
2023/10/12 00:33:21;;;;;;;2.53;1.50;;;13.50;99.90;;;;;;5091668;28;20847;-60
2023/10/12 00:36:03;;;;;;;5.20;2.07;;;13.50;99.90;;;;;;5091381;28;20445;-60
2023/10/12 00:38:30;;;;;;;2.97;2.33;;;13.60;99.90;;;;;;5091589;28;20462;-59
2023/10/12 00:40:57;;;;;;;2.03;1.70;;;13.60;99.90;;;;;;5091369;28;20864;-60
2023/10/12 00:43:36;;;;;;;1.70;1.60;;;13.60;99.90;;;;;;5091395;28;20497;-60
2023/10/12 00:51:34;;;;;;;1.27;1.27;;;13.90;99.90;;;;;;5091382;28;20432;-59
2023/10/12 00:53:59;;;;;;;2.70;2.00;;;13.90;99.90;;;;;;5091138;28;20494;-60
2023/10/12 00:56:26;;;;;;;1.80;1.70;;;13.90;99.90;;;;;;5091186;28;20414;-59
2023/10/12 00:58:55;;;;;;;2.53;2.17;;;13.90;99.90;;;;;;5091665;28;20200;-59
2023/10/12 01:01:21;;;;;;;3.43;1.13;;;13.90;99.90;;;;;;5091050;28;20422;-60
2023/10/12 01:03:47;;;;;;;3.27;1.53;;;13.90;99.90;;;;;;5091239;28;20409;-60
2023/10/12 01:06:28;;;;;;;8.07;3.30;;;14.00;99.90;;;;;;5090921;28;20907;-59
2023/10/12 01:08:57;;;;;;;2.40;1.43;;;14.00;99.90;;;;;;5091167;28;20440;-60
2023/10/12 01:11:26;;;;;;;1.27;1.23;;;14.00;99.90;;;;;;5091014;28;20770;-60
2023/10/12 01:14:17;;;;;;;2.40;2.00;;;14.00;99.90;;;;;;5090981;28;20506;-60
2023/10/12 01:19:22;;;;;;;2.03;1.30;;;13.90;99.90;;;;;;5091123;28;20427;-60
2023/10/12 01:22:01;;;;;;;8.93;2.00;;;13.90;99.90;;;;;;5094470;28;20513;-59
2023/10/12 01:24:32;;;;;;;3.70;2.10;;;13.90;99.90;;;;;;5095062;28;20410;-60
2023/10/12 01:26:59;;;;;;;8.13;2.20;;;13.90;99.90;;;;;;5094572;28;20833;-60
2023/10/12 01:29:25;;;;;;;2.00;1.37;;;13.80;99.90;;;;;;5094691;28;20406;-60
2023/10/12 01:34:37;;;;;;;1.60;1.50;;;13.90;99.90;;;;;;5094561;28;20500;-59
2023/10/12 01:39:57;;;;;;;3.90;1.87;;;13.80;99.90;;;;;;5094586;28;20794;-60
2023/10/12 01:48:05;;;;;;;1.97;1.87;;;13.70;99.90;;;;;;5094247;28;21035;-60
2023/10/12 01:50:33;;;;;;;2.93;1.80;;;13.80;99.90;;;;;;5094309;28;20509;-60
2023/10/12 01:52:59;;;;;;;2.23;1.60;;;13.80;99.90;;;;;;5094289;28;20438;-60
2023/10/12 01:55:29;;;;;;;8.90;1.63;;;13.70;99.90;;;;;;5094125;28;20446;-60
2023/10/12 01:57:55;;;;;;;2.00;0.90;;;13.60;99.90;;;;;;5093993;28;20405;-60
2023/10/12 02:00:33;;;;;;;2.93;1.40;;;13.60;99.90;;;;;;5094160;28;20418;-60
2023/10/12 02:05:58;;;;;;;4.57;2.23;;;13.40;99.90;;;;;;5094503;28;20434;-60
2023/10/12 02:08:32;;;;;;;2.70;1.97;;;13.50;99.90;;;;;;5093866;28;20410;-59
2023/10/12 02:11:06;;;;;;;1.63;1.53;;;13.40;99.90;;;;;;5093907;28;20535;-60
2023/10/12 02:13:34;;;;;;;8.43;1.00;;;13.40;99.90;;;;;;5094027;28;20547;-60
2023/10/12 02:16:01;;;;;;;1.87;1.50;;;13.30;99.90;;;;;;5093686;28;20553;-60
2023/10/12 02:18:27;;;;;;;1.53;1.20;;;13.30;99.90;;;;;;5094049;28;20410;-60
2023/10/12 02:21:20;;;;;;;1.70;1.17;;;13.30;99.90;;;;;;5093702;28;20425;-60
2023/10/12 02:34:19;;;;;;;3.03;1.87;;;13.10;99.90;;;;;;5093425;28;20610;-60
2023/10/12 02:39:40;;;;;;;2.23;1.57;;;13.00;99.90;;;;;;5093718;28;20408;-60
2023/10/12 02:44:36;;;;;;;2.73;1.73;;;13.00;99.90;;;;;;5093316;28;20540;-60
2023/10/12 02:47:12;;;;;;;1.80;1.53;;;13.00;99.90;;;;;;5092963;28;20413;-60
2023/10/12 02:49:42;;;;;;;2.50;1.53;;;12.90;99.90;;;;;;5093209;28;20414;-60
2023/10/12 02:52:14;;;;;;;1.80;1.17;;;12.90;99.90;;;;;;5093268;28;20803;-60
2023/10/12 02:54:50;;;;;;;2.10;1.87;;;12.90;99.90;;;;;;5093127;28;20503;-60
2023/10/12 02:57:23;;;;;;;2.10;1.60;;;12.90;99.90;;;;;;5093072;28;20440;-60
2023/10/12 02:59:57;;;;;;;2.57;1.70;;;12.90;99.90;;;;;;5093125;28;20483;-60
2023/10/12 03:02:32;;;;;;;2.20;1.30;;;12.90;99.90;;;;;;5092976;28;20402;-60
2023/10/12 03:05:06;;;;;;;1.17;0.93;;;12.90;99.90;;;;;;5092992;28;20816;-60
2023/10/12 03:07:40;;;;;;;1.27;1.27;;;12.80;99.90;;;;;;5092506;28;20408;-60
2023/10/12 03:10:15;;;;;;;2.00;1.47;;;12.80;99.90;;;;;;5143352;22;21857;-59
2023/10/12 03:12:42;;;;;;;4.47;1.33;;;12.80;99.90;;;;;;5092877;28;20409;-60
2023/10/12 03:15:12;;;;;;;2.20;1.40;;;12.60;99.90;;;;;;5092790;28;20503;-60
2023/10/12 03:17:42;;;;;;;1.40;1.30;;;12.60;99.90;;;;;;5092522;28;20422;-60
2023/10/12 03:20:52;;;;;;;2.77;1.40;;;12.70;99.90;;;;;;5092725;28;20423;-60
2023/10/12 03:23:12;;;;;;;1.70;1.17;;;12.70;99.90;;;;;;5089464;28;20415;-60
2023/10/12 03:25:43;;;;;;;2.33;1.70;;;12.80;99.90;;;;;;5092641;28;20788;-59
2023/10/12 03:28:29;;;;;;;2.60;1.50;;;12.70;99.90;;;;;;5092391;28;20398;-60
2023/10/12 03:31:10;;;;;;;2.03;1.03;;;12.70;99.90;;;;;;5092406;28;20424;-60
2023/10/12 03:33:39;;;;;;;2.33;1.17;;;12.80;99.90;;;;;;5092384;28;20445;-59
2023/10/12 03:36:22;;;;;;;1.73;1.63;;;12.80;99.90;;;;;;5092409;28;20414;-60
2023/10/12 03:47:15;;;;;;;2.40;1.50;;;12.80;99.90;;;;;;5092454;28;20960;-60
2023/10/12 03:52:34;;;;;;;5.80;2.00;;;12.80;99.90;;;;;;5092417;28;20454;-59
2023/10/12 03:57:38;;;;;;;1.77;0.80;;;12.60;99.90;;;;;;5091905;28;20437;-60
2023/10/12 04:02:56;;;;;;;1.67;1.30;;;12.60;99.90;;;;;;5092197;28;20412;-59
2023/10/12 04:05:35;;;;;;;0.70;0.67;;;12.70;99.90;;;;;;5091284;28;20476;-59
2023/10/12 04:08:18;;;;;;;1.17;1.17;;;12.60;99.90;;;;;;5091657;28;20464;-60
2023/10/12 04:18:32;;;;;;;2.10;0.80;;;12.70;99.90;;;;;;5091679;28;20967;-59
2023/10/12 04:20:58;;;;;;;1.03;1.03;;;12.70;99.90;;;;;;5091556;28;20423;-59
2023/10/12 04:28:58;;;;;;;2.53;1.77;;;12.60;99.90;;;;;;5067675;28;20411;-60
2023/10/12 04:31:34;;;;;;;3.93;1.47;;;12.60;99.90;;;;;;5091414;28;20426;-60
2023/10/12 04:36:44;;;;;;;3.13;1.97;;;12.60;99.90;;;;;;5091491;28;20417;-60
2023/10/12 04:41:53;;;;;;;6.23;3.03;;;12.70;99.90;;;;;;5091514;28;20415;-58
2023/10/12 04:44:39;;;;;;;1.23;1.20;;;12.70;99.90;;;;;;5091754;28;20504;-60
2023/10/12 04:47:06;;;;;;;1.03;1.03;;;12.60;99.90;;;;;;5091224;28;20403;-60
2023/10/12 04:52:17;;;;;;;2.70;1.50;;;12.60;99.90;;;;;;5091419;28;20415;-60
2023/10/12 04:57:33;;;;;;;1.70;1.10;;;12.60;99.90;;;;;;5095438;28;20415;-60
2023/10/12 05:00:10;;;;;;;2.63;1.30;;;12.60;99.90;;;;;;5095445;28;20404;-60
2023/10/12 05:07:54;;;;;;;2.70;1.57;;;12.40;99.90;;;;;;5095279;28;20411;-60
2023/10/12 05:10:31;;;;;;;1.00;0.87;;;12.50;99.90;;;;;;5095237;28;20470;-59
2023/10/12 05:13:04;;;;;;;1.10;1.00;;;12.40;99.90;;;;;;5095189;28;20495;-60
2023/10/12 05:15:40;;;;;;;1.37;1.13;;;12.30;99.90;;;;;;5094980;28;20454;-60
2023/10/12 05:18:11;;;;;;;1.83;1.70;;;12.20;99.90;;;;;;5076656;28;20425;-60
2023/10/12 05:20:41;;;;;;;2.43;1.17;;;12.30;99.90;;;;;;5095049;28;20452;-60
2023/10/12 05:23:07;;;;;;;2.20;1.57;;;12.40;99.90;;;;;;5094974;28;20403;-60
2023/10/12 05:25:33;;;;;;;1.97;1.80;;;12.40;99.90;;;;;;5094868;28;20425;-60
2023/10/12 05:28:13;;;;;;;3.60;1.47;;;12.40;99.90;;;;;;5094579;28;20403;-60
2023/10/12 05:30:38;;;;;;;1.40;0.70;;;12.40;99.90;;;;;;5094773;28;20450;-60
2023/10/12 05:33:05;;;;;;;3.33;1.10;;;12.40;99.90;;;;;;5094863;28;20510;-60
2023/10/12 05:35:52;;;;;;;1.97;1.87;;;12.40;99.90;;;;;;5094737;28;20516;-60
2023/10/12 05:38:18;;;;;;;1.40;1.17;;;12.40;99.90;;;;;;5094500;28;20456;-59
2023/10/12 05:40:53;;;;;;;1.83;1.03;;;12.40;99.90;;;;;;5094574;28;20825;-60
2023/10/12 05:43:22;;;;;;;2.00;1.40;;;12.40;99.90;;;;;;5094710;28;20221;-60
2023/10/12 05:45:47;;;;;;;6.40;1.60;;;12.40;99.90;;;;;;5094593;28;20800;-60
2023/10/12 05:48:15;;;;;;;0.80;0.80;;;12.30;99.90;;;;;;5094352;28;20413;-59
2023/10/12 05:50:42;;;;;;;3.90;1.87;;;12.40;99.90;;;;;;5094413;28;20189;-60
2023/10/12 05:53:08;;;;;;;2.93;1.37;;;12.30;99.90;;;;;;5094656;28;20415;-60
2023/10/12 05:55:34;;;;;;;2.80;2.27;;;12.30;99.90;;;;;;5094308;28;20471;-60
2023/10/12 05:58:09;;;;;;;4.23;2.00;;;12.40;99.90;;;;;;5094269;28;20161;-60
2023/10/12 06:00:45;;;;;;;1.83;0.93;;;12.40;99.90;;;;;;5094375;28;20483;-60
2023/10/12 06:03:15;;;;;;;7.80;1.10;;;12.40;99.90;;;;;;5094170;28;20402;-60
2023/10/12 06:05:43;;;;;;;1.83;1.73;;;12.40;99.90;;;;;;5094005;28;20908;-60
2023/10/12 06:08:10;;;;;;;1.87;1.70;;;12.40;99.90;;;;;;5093946;28;20409;-60
2023/10/12 06:10:46;;;;;;;1.90;1.00;;;12.50;99.90;;;;;;5093942;28;20458;-60
2023/10/12 06:13:14;;;;;;;0.73;0.73;;;12.50;99.90;;;;;;5094062;28;20418;-60
2023/10/12 06:15:41;;;;;;;2.40;2.20;;;12.60;99.90;;;;;;5093772;28;20468;-60
2023/10/12 06:18:15;;;;;;;1.97;1.87;;;12.60;99.90;;;;;;5093626;28;20403;-60
2023/10/12 06:20:42;;;;;;;3.13;2.67;;;12.50;99.90;;;;;;5094072;28;20536;-60
2023/10/12 06:23:13;;;;;;;2.13;1.27;;;12.50;99.90;;;;;;5093960;28;20620;-60
2023/10/12 06:25:39;;;;;;;0.97;0.93;;;12.60;99.90;;;;;;5093832;28;20427;-60
2023/10/12 06:28:16;;;;;;;1.30;1.20;;;12.60;99.90;;;;;;5093351;28;20405;-60
2023/10/12 06:30:45;;;;;;;2.23;1.60;;;12.70;99.90;;;;;;5093615;28;20929;-60
2023/10/12 06:33:15;;;;;;;2.83;2.00;;;12.80;99.90;;;;;;5093696;28;20420;-60
2023/10/12 06:36:16;;;;;;;1.70;1.33;;;12.80;99.90;;;;;;5093613;28;20454;-60
2023/10/12 06:41:58;;;;;;;1.33;0.77;;;13.00;99.90;;;;;;5093568;28;20422;-60
2023/10/12 06:44:27;;;;;;;2.00;0.80;;;13.10;99.90;;;;;;5093457;28;20757;-60
2023/10/12 06:47:02;;;;;;;2.20;1.23;;;13.30;99.90;;;;;;5093081;28;20735;-60
2023/10/12 06:49:32;;;;;;;2.50;2.03;;;13.40;99.90;;;;;;5075406;28;20783;-60
2023/10/12 06:52:01;;;;;;;1.43;1.33;;;13.50;99.60;;;;;;5093465;28;20440;-59
2023/10/12 06:54:39;;;;;;;4.77;1.23;;;13.60;99.70;;;;;;5093640;28;20447;-60
2023/10/12 06:59:59;;;;;;;1.00;1.00;;;14.00;99.90;;;;;;5093081;28;20391;-60
2023/10/12 07:02:29;;;;;;;3.33;3.00;;;14.50;99.90;;;;;;5093263;28;20919;-60
2023/10/12 07:05:00;;;;;;;2.30;1.20;;;15.70;99.30;;;;;;5093056;28;20411;-60
2023/10/12 07:07:36;;;;;;;3.07;2.10;;;17.10;97.40;;;;;;5092738;28;20407;-60
2023/10/12 07:12:47;;;;;;;2.27;1.70;;;19.60;93.30;;;;;;5093096;28;20401;-61
2023/10/12 07:15:21;;;;;;;2.03;1.60;;;20.80;91.10;;;;;;5092762;28;20515;-60
2023/10/12 07:17:50;;;;;;;2.50;2.07;;;21.80;87.60;;;;;;5091878;28;20429;-61
2023/10/12 07:20:40;;;;;;;3.53;1.63;;;22.20;82.10;;;;;;5092510;28;20815;-61
2023/10/12 07:23:15;;;;;;;2.83;2.00;;;22.70;80.60;;;;;;5092678;28;20924;-61
2023/10/12 07:25:45;;;;;;;2.30;1.57;;;23.20;76.60;;;;;;5092640;28;20984;-60
2023/10/12 07:31:05;;;;;;;6.50;3.07;;;23.30;73.70;;;;;;5092801;28;20507;-60
2023/10/12 07:33:33;;;;;;;3.60;2.70;;;23.00;73.60;;;;;;5092684;28;20380;-59
2023/10/12 07:36:10;;;;;;;5.37;2.50;;;22.50;74.30;;;;;;5092140;28;20446;-60
2023/10/12 07:38:36;;;;;;;2.70;1.70;;;22.00;76.80;;;;;;5092255;28;20888;-61
2023/10/12 07:41:03;;;;;;;4.33;3.07;;;21.80;78.40;;;;;;5092203;28;20897;-61
2023/10/12 07:43:32;;;;;;;2.73;2.10;;;21.80;79.40;;;;;;5092372;28;20406;-60
2023/10/12 07:46:24;;;;;;;2.53;2.33;;;21.90;79.10;;;;;;5092317;28;20810;-60
2023/10/12 07:48:51;;;;;;;2.77;2.17;;;21.90;80.50;;;;;;5091983;28;20419;-60
2023/10/12 07:51:26;;;;;;;1.50;1.40;;;22.20;80.60;;;;;;5092117;28;20807;-60
2023/10/12 07:54:10;;;;;;;2.00;1.80;;;22.70;79.90;;;;;;5092157;28;20894;-60
2023/10/12 07:56:47;;;;;;;2.53;2.00;;;23.90;77.00;;;;;;5091887;28;20494;-61
2023/10/12 07:59:16;;;;;;;2.17;1.97;;;25.20;76.30;;;;;;5092154;28;20802;-61
2023/10/12 08:01:47;;;;;;;1.83;1.63;;;26.60;71.80;;;;;;5091897;28;20425;-61
2023/10/12 08:04:31;;;;;;;3.20;1.83;;;27.80;63.70;;;;;;5092026;28;20771;-61
2023/10/12 08:06:57;;;;;;;2.30;2.10;;;29.20;59.00;;;;;;5091742;28;20410;-61
2023/10/12 08:11:53;;;;;;;4.07;2.37;;;31.60;49.80;;;;;;5091680;28;20576;-59
2023/10/12 08:19:39;;;;;;;3.07;2.47;;;29.20;54.20;;;;;;5092123;28;20410;-59
2023/10/12 08:22:14;;;;;;;3.10;2.77;;;28.10;56.30;;;;;;5091737;28;20411;-59
2023/10/12 08:24:39;;;;;;;5.87;2.70;;;27.30;56.20;;;;;;5091569;28;20493;-58
2023/10/12 08:27:06;;;;;;;2.33;2.10;;;27.70;54.70;;;;;;5091299;28;20977;-59
2023/10/12 08:44:54;;;;;;;2.70;1.57;;;30.90;46.30;;;;;;5091569;28;20403;-59
2023/10/12 08:50:47;;;;;;;6.53;2.10;;;28.50;47.90;;;;;;5091377;28;20467;-59
2023/10/12 08:52:59;;;;;;;3.40;2.10;;;27.60;51.10;;;;;;5091319;28;20411;-59
2023/10/12 08:55:31;;;;;;;3.20;1.97;;;26.80;50.20;;;;;;5091331;28;20453;-59
2023/10/12 08:58:11;;;;;;;3.60;2.20;;;26.20;50.40;;;;;;5073214;28;20519;-59
2023/10/12 09:01:07;;;;;;;2.43;1.90;;;25.80;50.90;;;;;;5091273;28;20427;-59
2023/10/12 09:03:44;;;;;;;2.57;2.00;;;25.90;51.20;;;;;;5091469;28;20884;-59
2023/10/12 09:06:53;;;;;;;3.13;2.57;;;25.90;51.40;;;;;;5091307;28;20418;-59
2023/10/12 09:08:57;;;;;;;2.30;1.50;;;26.20;53.50;;;;;;5090614;28;20781;-58
2023/10/12 09:11:29;;;;;;;1.50;1.37;;;26.80;52.50;;;;;;5094767;22;20521;-59
2023/10/12 09:13:57;;;;;;;4.23;2.50;;;27.90;49.70;;;;;;5090993;28;20417;-59
2023/10/12 09:16:23;;;;;;;2.43;1.57;;;29.40;48.40;;;;;;5090966;28;20912;-59
2023/10/12 09:18:56;;;;;;;4.13;1.83;;;30.60;46.30;;;;;;5090884;28;20422;-59
2023/10/12 09:23:52;;;;;;;2.70;1.90;;;32.10;43.80;;;;;;5091367;28;20493;-59
2023/10/12 09:26:33;;;;;;;2.10;1.90;;;32.10;43.60;;;;;;5090938;28;20920;-58
2023/10/12 09:29:08;;;;;;;2.00;1.80;;;31.90;43.10;;;;;;5091072;28;20403;-59
2023/10/12 09:36:45;;;;;;;2.00;1.80;;;31.90;44.10;;;;;;5090732;28;20418;-59
2023/10/12 09:39:22;;;;;;;2.80;2.23;;;32.30;41.20;;;;;;5091003;28;20472;-58
2023/10/12 09:44:37;;;;;;;1.93;1.60;;;33.20;40.20;;;;;;5095124;28;20517;-59
2023/10/12 09:47:15;;;;;;;1.10;1.10;;;33.70;40.50;;;;;;5094303;28;20413;-59
2023/10/12 09:49:53;;;;;;;5.87;2.43;;;33.40;39.00;;;;;;5095092;28;20894;-59
2023/10/12 09:52:23;;;;;;;2.30;2.10;;;33.40;40.00;;;;;;5094296;28;20441;-59
2023/10/12 09:54:56;;;;;;;2.30;2.03;;;33.90;41.10;;;;;;5094372;28;20446;-59
2023/10/12 09:57:27;;;;;;;4.30;2.33;;;34.40;39.00;;;;;;5094456;28;20520;-59
2023/10/12 09:59:59;;;;;;;3.57;2.53;;;34.80;37.80;;;;;;5094317;28;20403;-59
2023/10/12 10:02:28;;;;;;;2.43;1.73;;;34.80;37.70;;;;;;5094284;28;20423;-59
2023/10/12 10:05:05;;;;;;;4.43;2.33;;;34.00;36.20;;;;;;5094233;28;20912;-59
2023/10/12 10:07:36;;;;;;;3.27;2.40;;;32.80;38.00;;;;;;5075790;28;20423;-59
2023/10/12 10:10:27;;;;;;;3.23;2.23;;;31.30;40.20;;;;;;5094254;28;20488;-59
2023/10/12 10:12:52;;;;;;;2.33;1.80;;;30.90;41.20;;;;;;5093976;28;20928;-58
2023/10/12 10:15:23;;;;;;;2.60;2.40;;;31.00;40.70;;;;;;5093902;28;20517;-59
2023/10/12 10:17:53;;;;;;;2.63;2.10;;;30.80;40.90;;;;;;5093888;28;20169;-59
2023/10/12 10:22:59;;;;;;;3.70;2.23;;;31.10;41.20;;;;;;5093766;28;20406;-59
2023/10/12 10:25:34;;;;;;;2.23;2.03;;;31.00;40.60;;;;;;5093587;28;20410;-59
2023/10/12 10:28:24;;;;;;;2.00;1.90;;;30.70;40.30;;;;;;5093473;28;20399;-59
2023/10/12 10:30:52;;;;;;;3.03;2.60;;;30.30;41.80;;;;;;5093736;28;20423;-59
2023/10/12 10:33:23;;;;;;;3.03;2.10;;;29.50;42.60;;;;;;5093724;28;20511;-59
2023/10/12 10:36:23;;;;;;;1.97;1.80;;;28.90;42.50;;;;;;5093489;28;20439;-59
2023/10/12 10:44:17;;;;;;;4.77;2.37;;;28.60;44.30;;;;;;5055147;28;20426;-59
2023/10/12 10:46:46;;;;;;;2.20;2.00;;;28.50;44.30;;;;;;5093310;28;20434;-59
2023/10/12 10:49:16;;;;;;;2.90;1.87;;;28.30;43.60;;;;;;5093417;28;20945;-59
2023/10/12 10:51:48;;;;;;;1.83;1.73;;;28.00;44.20;;;;;;5093303;28;20405;-61
2023/10/12 10:54:18;;;;;;;2.07;1.60;;;27.70;44.80;;;;;;5092233;28;20854;-61
2023/10/12 10:56:48;;;;;;;2.20;1.70;;;27.50;45.80;;;;;;5092862;28;20772;-60
2023/10/12 10:59:17;;;;;;;1.47;1.37;;;27.20;45.40;;;;;;5093546;28;20409;-60
2023/10/12 11:01:48;;;;;;;2.07;1.40;;;26.90;45.60;;;;;;5092993;28;20405;-61
2023/10/12 11:04:55;;;;;;;1.90;1.77;;;26.60;46.10;;;;;;5093257;28;20386;-61
2023/10/12 11:07:15;;;;;;;3.03;1.63;;;26.20;47.00;;;;;;5088446;28;20393;-60
2023/10/12 11:12:24;;;;;;;2.07;1.70;;;25.60;48.30;;;;;;5092850;28;20420;-60
2023/10/12 11:15:00;;;;;;;2.20;1.60;;;25.50;50.00;;;;;;5092932;28;20974;-60
2023/10/12 11:17:30;;;;;;;2.83;2.63;;;25.60;48.80;;;;;;5092528;28;20377;-60
2023/10/12 11:20:00;;;;;;;2.60;2.20;;;25.60;49.20;;;;;;5092996;28;20381;-60
2023/10/12 11:22:26;;;;;;;4.10;2.00;;;25.60;49.00;;;;;;5092668;28;20437;-60
2023/10/12 11:24:53;;;;;;;1.97;1.77;;;25.60;51.30;;;;;;5092609;28;20894;-60
2023/10/12 11:27:35;;;;;;;3.30;1.90;;;25.10;49.60;;;;;;5092380;28;20435;-60
2023/10/12 11:30:18;;;;;;;2.40;2.20;;;25.00;49.50;;;;;;5092387;28;20469;-60
2023/10/12 11:32:55;;;;;;;1.90;1.80;;;25.00;50.70;;;;;;5092556;28;20377;-60
2023/10/12 11:35:40;;;;;;;2.43;2.23;;;25.00;50.30;;;;;;5092374;28;20475;-60
2023/10/12 11:38:19;;;;;;;2.90;1.60;;;24.90;49.80;;;;;;5092187;28;20388;-61
2023/10/12 11:40:55;;;;;;;5.30;1.93;;;24.90;50.20;;;;;;5092324;28;20955;-61
2023/10/12 11:43:44;;;;;;;4.50;2.10;;;24.90;50.50;;;;;;5092552;28;20398;-61
2023/10/12 11:46:10;;;;;;;2.30;1.40;;;25.00;50.60;;;;;;5092211;28;20426;-59
2023/10/12 11:48:35;;;;;;;5.03;2.10;;;25.10;51.10;;;;;;5092087;28;20410;-61
2023/10/12 11:51:12;;;;;;;4.63;2.27;;;25.20;50.20;;;;;;5092117;28;20290;-61
2023/10/12 11:53:38;;;;;;;2.47;2.10;;;25.20;50.20;;;;;;5092406;28;20176;-61
2023/10/12 11:56:12;;;;;;;4.07;2.80;;;25.20;50.10;;;;;;5091976;28;20495;-60
2023/10/12 11:58:38;;;;;;;2.03;1.80;;;25.20;53.20;;;;;;5092006;28;20454;-60
2023/10/12 12:01:07;;;;;;;1.50;1.40;;;25.20;51.00;;;;;;5091961;28;20435;-61
2023/10/12 12:03:39;;;;;;;3.40;2.57;;;25.10;50.00;;;;;;5091724;28;20177;-61
2023/10/12 12:06:38;;;;;;;2.63;1.47;;;24.80;50.40;;;;;;5092055;28;20390;-61
2023/10/12 12:08:59;;;;;;;2.73;1.83;;;24.70;50.70;;;;;;5087919;28;20385;-60
2023/10/12 12:11:31;;;;;;;2.43;1.57;;;24.50;50.50;;;;;;5091792;28;20454;-60
2023/10/12 12:13:57;;;;;;;2.53;1.97;;;24.50;51.10;;;;;;5091733;28;20460;-60
2023/10/12 12:16:23;;;;;;;1.37;1.20;;;24.50;49.60;;;;;;5091700;28;20410;-61
2023/10/12 12:18:51;;;;;;;3.30;1.80;;;24.60;49.80;;;;;;5091602;28;20380;-60
2023/10/12 12:21:28;;;;;;;1.43;1.33;;;24.70;54.60;;;;;;5091717;28;20577;-60
2023/10/12 12:24:22;;;;;;;1.63;1.53;;;24.60;49.80;;;;;;5091762;28;20864;-60
2023/10/12 12:26:49;;;;;;;2.47;2.27;;;24.60;49.30;;;;;;5091255;28;20967;-60
2023/10/12 12:29:16;;;;;;;1.60;1.50;;;24.40;48.80;;;;;;5091633;28;20406;-60
2023/10/12 12:31:42;;;;;;;1.20;1.10;;;24.40;48.80;;;;;;5091500;28;20468;-61
2023/10/12 12:34:08;;;;;;;4.07;1.80;;;24.40;50.40;;;;;;5091553;28;20873;-61
2023/10/12 12:36:34;;;;;;;3.50;2.10;;;24.40;51.90;;;;;;5091730;28;20381;-60
2023/10/12 12:39:01;;;;;;;1.77;1.57;;;24.60;52.70;;;;;;5091502;28;20168;-61
2023/10/12 12:41:29;;;;;;;7.13;2.33;;;24.60;48.60;;;;;;5091485;28;20427;-60
2023/10/12 12:43:59;;;;;;;3.60;1.47;;;24.70;49.10;;;;;;5091680;28;20541;-61
2023/10/12 12:46:25;;;;;;;2.87;1.97;;;24.90;50.70;;;;;;5091362;28;20426;-60
2023/10/12 12:48:51;;;;;;;2.37;1.40;;;24.90;55.80;;;;;;5091296;28;20374;-60
2023/10/12 12:51:18;;;;;;;3.10;2.13;;;24.70;48.30;;;;;;5091237;28;20423;-60
2023/10/12 12:53:46;;;;;;;2.30;1.50;;;24.70;47.00;;;;;;5091607;28;20827;-60
2023/10/12 12:56:17;;;;;;;1.90;1.80;;;24.60;47.50;;;;;;5091236;28;20447;-61
2023/10/12 12:58:47;;;;;;;2.23;1.70;;;24.40;52.90;;;;;;5091152;28;20481;-60
2023/10/12 13:01:17;;;;;;;2.20;1.63;;;24.10;51.00;;;;;;5091343;28;20522;-60
2023/10/12 13:03:45;;;;;;;3.70;1.27;;;23.80;48.50;;;;;;5091174;28;20403;-60
2023/10/12 13:06:14;;;;;;;1.63;1.50;;;23.70;50.70;;;;;;5091210;28;20893;-60
2023/10/12 13:08:40;;;;;;;1.70;1.60;;;23.60;49.80;;;;;;5091117;28;20443;-60
2023/10/12 13:11:05;;;;;;;1.50;1.40;;;23.70;48.60;;;;;;5091126;28;20542;-60
2023/10/12 13:13:33;;;;;;;3.50;1.63;;;23.80;48.50;;;;;;5091228;28;20176;-60
2023/10/12 13:16:01;;;;;;;1.60;1.50;;;24.00;49.40;;;;;;5091785;28;20189;-60
2023/10/12 13:18:29;;;;;;;3.03;1.50;;;24.10;49.70;;;;;;5094912;28;20438;-60
2023/10/12 13:20:57;;;;;;;1.97;1.83;;;24.10;51.00;;;;;;5095258;28;20424;-60
2023/10/12 13:23:23;;;;;;;3.67;1.40;;;24.00;52.40;;;;;;5095090;28;20409;-60
2023/10/12 13:25:50;;;;;;;7.10;2.10;;;24.00;50.30;;;;;;5094840;28;20415;-60
2023/10/12 13:28:16;;;;;;;2.10;1.80;;;23.90;50.80;;;;;;5094772;28;20422;-60
2023/10/12 13:30:43;;;;;;;2.57;1.37;;;24.00;51.20;;;;;;5094803;28;20479;-60
2023/10/12 13:33:11;;;;;;;1.70;1.60;;;24.10;48.80;;;;;;5094921;28;20399;-60
2023/10/12 13:38:09;;;;;;;2.40;2.20;;;24.00;48.20;;;;;;5094910;28;20413;-60
2023/10/12 13:40:39;;;;;;;3.30;1.90;;;24.00;49.50;;;;;;5094722;28;20459;-61
2023/10/12 13:43:09;;;;;;;1.87;1.17;;;24.00;52.00;;;;;;5095271;28;20377;-60
2023/10/12 13:45:34;;;;;;;4.73;1.60;;;24.00;53.70;;;;;;5094589;28;20458;-60
2023/10/12 13:48:00;;;;;;;1.80;1.67;;;24.10;54.70;;;;;;5094401;28;20495;-60
2023/10/12 13:50:26;;;;;;;2.90;1.80;;;23.90;48.00;;;;;;5094436;28;20201;-60
2023/10/12 13:52:53;;;;;;;2.97;1.60;;;23.80;48.30;;;;;;5094541;28;20179;-60
2023/10/12 13:55:19;;;;;;;1.90;1.73;;;23.80;54.40;;;;;;5094325;28;20231;-61
2023/10/12 13:57:55;;;;;;;1.53;1.43;;;23.60;52.70;;;;;;5094225;28;20365;-60
2023/10/12 14:00:25;;;;;;;4.10;1.87;;;23.50;52.60;;;;;;5094656;28;20214;-60
2023/10/12 14:02:56;;;;;;;1.70;1.60;;;23.30;51.00;;;;;;5094466;28;20841;-60
2023/10/12 14:05:27;;;;;;;1.10;0.97;;;23.10;53.20;;;;;;5094339;28;20438;-60
2023/10/12 14:07:54;;;;;;;3.27;2.00;;;23.10;53.70;;;;;;5094054;28;20924;-60
2023/10/12 14:10:21;;;;;;;1.10;1.00;;;23.00;56.40;;;;;;5093994;28;20435;-61
2023/10/12 14:12:47;;;;;;;4.70;2.03;;;22.80;58.10;;;;;;5094080;28;20985;-60
2023/10/12 14:15:14;;;;;;;2.70;1.00;;;22.80;54.40;;;;;;5094191;28;20496;-60
2023/10/12 14:17:39;;;;;;;2.50;1.47;;;22.60;52.60;;;;;;5093711;28;20177;-60
2023/10/12 14:20:08;;;;;;;1.43;1.33;;;22.50;55.70;;;;;;5093874;28;20458;-61
2023/10/12 14:22:34;;;;;;;0.93;0.93;;;22.60;51.60;;;;;;5093911;28;20725;-60
2023/10/12 14:25:06;;;;;;;1.50;1.33;;;22.60;51.10;;;;;;5093792;28;20486;-60
2023/10/12 14:27:33;;;;;;;1.60;1.50;;;22.60;55.30;;;;;;5093496;28;20228;-60
2023/10/12 14:30:13;;;;;;;2.00;1.57;;;22.50;56.60;;;;;;5093725;28;20414;-60
2023/10/12 14:32:40;;;;;;;1.33;1.07;;;22.40;57.90;;;;;;5094205;28;20409;-60
2023/10/12 14:35:07;;;;;;;2.53;1.40;;;22.10;51.30;;;;;;5093715;28;20665;-60
2023/10/12 14:37:36;;;;;;;3.13;1.30;;;22.10;56.20;;;;;;5093241;28;20407;-60
2023/10/12 14:40:05;;;;;;;1.63;1.23;;;22.00;56.30;;;;;;5093510;28;20409;-60
2023/10/12 14:42:31;;;;;;;2.23;1.43;;;21.90;57.20;;;;;;5093916;28;20501;-60
2023/10/12 14:44:57;;;;;;;3.13;1.93;;;21.90;54.90;;;;;;5093572;28;20461;-60
2023/10/12 14:47:23;;;;;;;2.70;2.50;;;21.90;52.40;;;;;;5093170;28;20174;-59
2023/10/12 14:49:50;;;;;;;1.13;1.00;;;22.00;52.90;;;;;;5093777;28;20406;-59
2023/10/12 14:52:17;;;;;;;2.33;1.47;;;22.10;57.60;;;;;;5093750;28;20199;-60
2023/10/12 14:54:43;;;;;;;1.77;1.67;;;21.90;58.40;;;;;;5093554;28;20457;-60
2023/10/12 14:57:10;;;;;;;2.20;1.53;;;22.00;56.00;;;;;;5092974;28;20404;-60
2023/10/12 14:59:36;;;;;;;1.30;0.90;;;22.10;55.50;;;;;;5093160;28;20172;-60
2023/10/12 15:02:09;;;;;;;2.97;1.60;;;22.10;57.20;;;;;;5092889;28;20468;-61
2023/10/12 15:04:41;;;;;;;2.70;1.60;;;22.20;57.40;;;;;;5093121;28;20180;-60
2023/10/12 15:07:09;;;;;;;1.13;0.80;;;22.00;55.20;;;;;;5092796;28;20402;-60
2023/10/12 15:09:35;;;;;;;4.10;2.33;;;22.00;58.80;;;;;;5093156;28;20406;-59
2023/10/12 15:12:05;;;;;;;3.17;1.40;;;21.90;54.60;;;;;;5110572;22;21059;-60
2023/10/12 15:14:34;;;;;;;1.90;1.73;;;22.00;57.90;;;;;;5092793;28;20974;-61
2023/10/12 15:17:00;;;;;;;2.43;1.50;;;22.00;57.10;;;;;;5092460;28;20406;-60
2023/10/12 15:19:27;;;;;;;1.80;1.20;;;22.00;53.00;;;;;;5092684;28;20413;-60
2023/10/12 15:21:53;;;;;;;2.30;1.63;;;22.00;58.20;;;;;;5092884;28;20680;-61
2023/10/12 15:24:19;;;;;;;3.10;1.43;;;21.80;55.80;;;;;;5092804;28;20414;-60
2023/10/12 15:26:45;;;;;;;1.77;1.63;;;21.70;56.40;;;;;;5092370;28;20791;-59
2023/10/12 15:29:11;;;;;;;1.47;1.20;;;21.70;57.30;;;;;;5092643;28;20180;-61
2023/10/12 15:31:37;;;;;;;1.50;1.30;;;21.60;59.70;;;;;;5092416;28;20183;-60
2023/10/12 15:34:02;;;;;;;1.00;0.93;;;21.40;60.60;;;;;;5092690;28;20568;-60
2023/10/12 15:36:28;;;;;;;4.20;2.77;;;21.40;59.00;;;;;;5092489;28;20419;-59
2023/10/12 15:38:54;;;;;;;1.23;1.13;;;21.30;58.60;;;;;;5091875;28;20600;-60